sensor_id;sensor_type;location;lat;lon;timestamp;temperature;humidity
30825;DHT22;17550;45.486;12.222;2023-02-15T00:01:09;5.90;99.90
30825;DHT22;17550;45.486;12.222;2023-02-15T00:03:35;5.90;99.90
30825;DHT22;17550;45.486;12.222;2023-02-15T00:06:01;5.90;99.90
30825;DHT22;17550;45.486;12.222;2023-02-15T00:08:27;5.80;99.90
30825;DHT22;17550;45.486;12.222;2023-02-15T00:10:53;5.80;99.90
30825;DHT22;17550;45.486;12.222;2023-02-15T00:13:19;5.70;99.90
30825;DHT22;17550;45.486;12.222;2023-02-15T00:15:44;5.80;99.90
30825;DHT22;17550;45.486;12.222;2023-02-15T00:18:10;5.70;99.90
30825;DHT22;17550;45.486;12.222;2023-02-15T00:20:35;5.70;99.90
30825;DHT22;17550;45.486;12.222;2023-02-15T00:23:01;5.70;99.90
30825;DHT22;17550;45.486;12.222;2023-02-15T00:25:27;5.70;99.90
30825;DHT22;17550;45.486;12.222;2023-02-15T00:27:52;5.70;99.90
30825;DHT22;17550;45.486;12.222;2023-02-15T00:30:18;5.70;99.90
30825;DHT22;17550;45.486;12.222;2023-02-15T00:32:44;5.60;99.90
30825;DHT22;17550;45.486;12.222;2023-02-15T00:35:09;5.70;99.90
30825;DHT22;17550;45.486;12.222;2023-02-15T00:37:36;5.60;99.90
30825;DHT22;17550;45.486;12.222;2023-02-15T00:40:01;5.50;99.90
30825;DHT22;17550;45.486;12.222;2023-02-15T00:42:27;5.30;99.90
30825;DHT22;17550;45.486;12.222;2023-02-15T00:44:52;5.20;99.90
30825;DHT22;17550;45.486;12.222;2023-02-15T00:47:18;5.20;99.90
30825;DHT22;17550;45.486;12.222;2023-02-15T00:49:44;5.20;99.90
30825;DHT22;17550;45.486;12.222;2023-02-15T00:52:10;5.20;99.90
30825;DHT22;17550;45.486;12.222;2023-02-15T00:54:35;5.20;99.90
30825;DHT22;17550;45.486;12.222;2023-02-15T00:57:01;5.20;99.90
30825;DHT22;17550;45.486;12.222;2023-02-15T00:59:27;5.30;99.90
30825;DHT22;17550;45.486;12.222;2023-02-15T01:01:52;5.30;99.90
30825;DHT22;17550;45.486;12.222;2023-02-15T01:04:18;5.30;99.90
30825;DHT22;17550;45.486;12.222;2023-02-15T01:06:44;5.30;99.90
30825;DHT22;17550;45.486;12.222;2023-02-15T01:09:09;5.30;99.90
30825;DHT22;17550;45.486;12.222;2023-02-15T01:11:35;5.40;99.90
30825;DHT22;17550;45.486;12.222;2023-02-15T01:14:00;5.30;99.90
30825;DHT22;17550;45.486;12.222;2023-02-15T01:16:29;5.30;99.90
30825;DHT22;17550;45.486;12.222;2023-02-15T01:18:54;5.30;99.90
30825;DHT22;17550;45.486;12.222;2023-02-15T01:21:22;5.20;99.90
30825;DHT22;17550;45.486;12.222;2023-02-15T01:23:48;5.30;99.90
30825;DHT22;17550;45.486;12.222;2023-02-15T01:26:15;5.20;99.90
30825;DHT22;17550;45.486;12.222;2023-02-15T01:28:41;5.30;99.90
30825;DHT22;17550;45.486;12.222;2023-02-15T01:31:08;5.30;99.90
30825;DHT22;17550;45.486;12.222;2023-02-15T01:33:35;5.30;99.90
30825;DHT22;17550;45.486;12.222;2023-02-15T01:36:01;5.20;99.90
30825;DHT22;17550;45.486;12.222;2023-02-15T01:38:27;5.20;99.90
30825;DHT22;17550;45.486;12.222;2023-02-15T01:40:53;5.30;99.90
30825;DHT22;17550;45.486;12.222;2023-02-15T01:43:44;5.30;99.90
30825;DHT22;17550;45.486;12.222;2023-02-15T01:46:11;5.30;99.90
30825;DHT22;17550;45.486;12.222;2023-02-15T01:48:46;5.30;99.90
30825;DHT22;17550;45.486;12.222;2023-02-15T01:51:13;5.30;99.90
30825;DHT22;17550;45.486;12.222;2023-02-15T01:53:55;5.20;99.90
30825;DHT22;17550;45.486;12.222;2023-02-15T01:56:23;5.20;99.90
30825;DHT22;17550;45.486;12.222;2023-02-15T01:58:51;5.20;99.90
30825;DHT22;17550;45.486;12.222;2023-02-15T02:01:19;5.20;99.90
30825;DHT22;17550;45.486;12.222;2023-02-15T02:04:13;5.20;99.90
30825;DHT22;17550;45.486;12.222;2023-02-15T02:06:40;5.20;99.90
30825;DHT22;17550;45.486;12.222;2023-02-15T02:09:06;5.10;99.90
30825;DHT22;17550;45.486;12.222;2023-02-15T02:11:33;5.10;99.90
30825;DHT22;17550;45.486;12.222;2023-02-15T02:13:59;5.10;99.90
30825;DHT22;17550;45.486;12.222;2023-02-15T02:16:37;5.10;99.90
30825;DHT22;17550;45.486;12.222;2023-02-15T02:24:36;5.00;99.90
30825;DHT22;17550;45.486;12.222;2023-02-15T02:42:18;4.90;99.90
30825;DHT22;17550;45.486;12.222;2023-02-15T02:44:26;4.90;99.90
30825;DHT22;17550;45.486;12.222;2023-02-15T02:49:40;4.80;99.90
30825;DHT22;17550;45.486;12.222;2023-02-15T03:00:59;4.70;99.90
30825;DHT22;17550;45.486;12.222;2023-02-15T03:03:43;4.70;99.90
30825;DHT22;17550;45.486;12.222;2023-02-15T03:06:13;4.70;99.90
30825;DHT22;17550;45.486;12.222;2023-02-15T03:08:51;4.70;99.90
30825;DHT22;17550;45.486;12.222;2023-02-15T03:11:19;4.70;99.90
30825;DHT22;17550;45.486;12.222;2023-02-15T03:13:47;4.70;99.90
30825;DHT22;17550;45.486;12.222;2023-02-15T03:16:16;4.70;99.90
30825;DHT22;17550;45.486;12.222;2023-02-15T03:21:31;4.70;99.90
30825;DHT22;17550;45.486;12.222;2023-02-15T03:24:03;4.70;99.90
30825;DHT22;17550;45.486;12.222;2023-02-15T03:26:32;4.60;99.90
30825;DHT22;17550;45.486;12.222;2023-02-15T03:29:01;4.60;99.90
30825;DHT22;17550;45.486;12.222;2023-02-15T03:31:31;4.60;99.90
30825;DHT22;17550;45.486;12.222;2023-02-15T03:34:00;4.50;99.90
30825;DHT22;17550;45.486;12.222;2023-02-15T03:36:51;4.50;99.90
30825;DHT22;17550;45.486;12.222;2023-02-15T03:40:07;4.50;99.90
30825;DHT22;17550;45.486;12.222;2023-02-15T03:42:17;4.50;99.90
30825;DHT22;17550;45.486;12.222;2023-02-15T03:45:08;4.50;99.90
30825;DHT22;17550;45.486;12.222;2023-02-15T03:47:41;4.50;99.90
30825;DHT22;17550;45.486;12.222;2023-02-15T03:50:13;4.40;99.90
30825;DHT22;17550;45.486;12.222;2023-02-15T03:53:00;4.40;99.90
30825;DHT22;17550;45.486;12.222;2023-02-15T03:55:27;4.30;99.90
30825;DHT22;17550;45.486;12.222;2023-02-15T03:57:53;4.30;99.90
30825;DHT22;17550;45.486;12.222;2023-02-15T04:00:43;4.30;99.90
30825;DHT22;17550;45.486;12.222;2023-02-15T04:03:39;4.40;99.90
30825;DHT22;17550;45.486;12.222;2023-02-15T04:06:06;4.30;99.90
30825;DHT22;17550;45.486;12.222;2023-02-15T04:08:32;4.40;99.90
30825;DHT22;17550;45.486;12.222;2023-02-15T04:11:16;4.30;99.90
30825;DHT22;17550;45.486;12.222;2023-02-15T04:13:42;4.40;99.90
30825;DHT22;17550;45.486;12.222;2023-02-15T04:16:08;4.40;99.90
30825;DHT22;17550;45.486;12.222;2023-02-15T04:18:41;4.40;99.90
30825;DHT22;17550;45.486;12.222;2023-02-15T04:21:27;4.30;99.90
30825;DHT22;17550;45.486;12.222;2023-02-15T04:24:12;4.30;99.90
30825;DHT22;17550;45.486;12.222;2023-02-15T04:26:57;4.30;99.90
30825;DHT22;17550;45.486;12.222;2023-02-15T04:29:24;4.30;99.90
30825;DHT22;17550;45.486;12.222;2023-02-15T04:31:50;4.20;99.90
30825;DHT22;17550;45.486;12.222;2023-02-15T04:34:16;4.20;99.90
30825;DHT22;17550;45.486;12.222;2023-02-15T04:36:42;4.20;99.90
30825;DHT22;17550;45.486;12.222;2023-02-15T04:39:09;4.30;99.90
30825;DHT22;17550;45.486;12.222;2023-02-15T04:41:35;4.30;99.90
30825;DHT22;17550;45.486;12.222;2023-02-15T04:44:01;4.30;99.90
30825;DHT22;17550;45.486;12.222;2023-02-15T04:46:27;4.30;99.90
30825;DHT22;17550;45.486;12.222;2023-02-15T04:48:53;4.30;99.90
30825;DHT22;17550;45.486;12.222;2023-02-15T04:51:19;4.30;99.90
30825;DHT22;17550;45.486;12.222;2023-02-15T04:53:45;4.30;99.90
30825;DHT22;17550;45.486;12.222;2023-02-15T04:56:10;4.30;99.90
30825;DHT22;17550;45.486;12.222;2023-02-15T04:58:36;4.30;99.90
30825;DHT22;17550;45.486;12.222;2023-02-15T05:01:04;4.20;99.90
30825;DHT22;17550;45.486;12.222;2023-02-15T05:03:30;4.20;99.90
30825;DHT22;17550;45.486;12.222;2023-02-15T05:05:55;4.20;99.90
30825;DHT22;17550;45.486;12.222;2023-02-15T05:08:21;4.20;99.90
30825;DHT22;17550;45.486;12.222;2023-02-15T05:10:49;4.20;99.90
30825;DHT22;17550;45.486;12.222;2023-02-15T05:13:15;4.10;99.90
30825;DHT22;17550;45.486;12.222;2023-02-15T05:15:41;4.10;99.90
30825;DHT22;17550;45.486;12.222;2023-02-15T05:18:06;4.10;99.90
30825;DHT22;17550;45.486;12.222;2023-02-15T05:20:33;4.10;99.90
30825;DHT22;17550;45.486;12.222;2023-02-15T05:22:59;4.10;99.90
30825;DHT22;17550;45.486;12.222;2023-02-15T05:25:24;4.10;99.90
30825;DHT22;17550;45.486;12.222;2023-02-15T05:28:10;4.00;99.90
30825;DHT22;17550;45.486;12.222;2023-02-15T05:30:45;4.00;99.90
30825;DHT22;17550;45.486;12.222;2023-02-15T05:33:10;3.90;99.90
30825;DHT22;17550;45.486;12.222;2023-02-15T05:35:36;4.00;99.90
30825;DHT22;17550;45.486;12.222;2023-02-15T05:38:02;4.00;99.90
30825;DHT22;17550;45.486;12.222;2023-02-15T05:40:28;3.90;99.90
30825;DHT22;17550;45.486;12.222;2023-02-15T05:42:53;3.90;99.90
30825;DHT22;17550;45.486;12.222;2023-02-15T05:45:19;3.90;99.90
30825;DHT22;17550;45.486;12.222;2023-02-15T05:47:45;3.90;99.90
30825;DHT22;17550;45.486;12.222;2023-02-15T05:50:10;3.90;99.90
30825;DHT22;17550;45.486;12.222;2023-02-15T05:52:39;3.90;99.90
30825;DHT22;17550;45.486;12.222;2023-02-15T05:55:05;3.90;99.90
30825;DHT22;17550;45.486;12.222;2023-02-15T05:57:31;3.90;99.90
30825;DHT22;17550;45.486;12.222;2023-02-15T05:59:57;4.00;99.90
30825;DHT22;17550;45.486;12.222;2023-02-15T06:02:22;3.90;99.90
30825;DHT22;17550;45.486;12.222;2023-02-15T06:04:48;3.90;99.90
30825;DHT22;17550;45.486;12.222;2023-02-15T06:07:14;3.90;99.90
30825;DHT22;17550;45.486;12.222;2023-02-15T06:09:39;3.90;99.90
30825;DHT22;17550;45.486;12.222;2023-02-15T06:12:05;4.00;99.90
30825;DHT22;17550;45.486;12.222;2023-02-15T06:14:31;4.00;99.90
30825;DHT22;17550;45.486;12.222;2023-02-15T06:16:56;4.00;99.90
30825;DHT22;17550;45.486;12.222;2023-02-15T06:19:22;4.00;99.90
30825;DHT22;17550;45.486;12.222;2023-02-15T06:21:48;4.00;99.90
30825;DHT22;17550;45.486;12.222;2023-02-15T06:24:14;3.90;99.90
30825;DHT22;17550;45.486;12.222;2023-02-15T06:26:40;4.00;99.90
30825;DHT22;17550;45.486;12.222;2023-02-15T06:29:06;4.00;99.90
30825;DHT22;17550;45.486;12.222;2023-02-15T06:31:32;4.00;99.90
30825;DHT22;17550;45.486;12.222;2023-02-15T06:33:57;4.10;99.90
30825;DHT22;17550;45.486;12.222;2023-02-15T06:36:29;4.10;99.90
30825;DHT22;17550;45.486;12.222;2023-02-15T06:38:55;4.10;99.90
30825;DHT22;17550;45.486;12.222;2023-02-15T06:41:21;4.20;99.90
30825;DHT22;17550;45.486;12.222;2023-02-15T06:43:47;4.20;99.90
30825;DHT22;17550;45.486;12.222;2023-02-15T06:46:13;4.30;99.90
30825;DHT22;17550;45.486;12.222;2023-02-15T06:48:38;4.30;99.90
30825;DHT22;17550;45.486;12.222;2023-02-15T06:51:04;4.30;99.90
30825;DHT22;17550;45.486;12.222;2023-02-15T06:53:30;4.40;99.90
30825;DHT22;17550;45.486;12.222;2023-02-15T06:56:03;4.50;99.90
30825;DHT22;17550;45.486;12.222;2023-02-15T06:58:37;4.50;99.90
30825;DHT22;17550;45.486;12.222;2023-02-15T07:01:03;4.50;99.90
30825;DHT22;17550;45.486;12.222;2023-02-15T07:03:30;4.60;99.90
30825;DHT22;17550;45.486;12.222;2023-02-15T07:05:57;4.70;99.90
30825;DHT22;17550;45.486;12.222;2023-02-15T07:08:24;4.80;99.90
30825;DHT22;17550;45.486;12.222;2023-02-15T07:10:50;4.90;99.90
30825;DHT22;17550;45.486;12.222;2023-02-15T07:13:17;4.90;99.90
30825;DHT22;17550;45.486;12.222;2023-02-15T07:15:43;5.00;99.90
30825;DHT22;17550;45.486;12.222;2023-02-15T07:18:09;5.10;99.90
30825;DHT22;17550;45.486;12.222;2023-02-15T07:20:36;5.10;99.90
30825;DHT22;17550;45.486;12.222;2023-02-15T07:23:03;5.20;99.90
30825;DHT22;17550;45.486;12.222;2023-02-15T07:25:29;5.40;99.90
30825;DHT22;17550;45.486;12.222;2023-02-15T07:27:59;5.50;99.90
30825;DHT22;17550;45.486;12.222;2023-02-15T07:30:26;5.60;99.90
30825;DHT22;17550;45.486;12.222;2023-02-15T07:32:57;5.70;99.90
30825;DHT22;17550;45.486;12.222;2023-02-15T07:35:48;5.80;99.90
30825;DHT22;17550;45.486;12.222;2023-02-15T07:38:14;5.80;99.90
30825;DHT22;17550;45.486;12.222;2023-02-15T07:40:40;6.00;99.90
30825;DHT22;17550;45.486;12.222;2023-02-15T07:43:06;5.90;99.90
30825;DHT22;17550;45.486;12.222;2023-02-15T07:45:31;6.00;99.90
30825;DHT22;17550;45.486;12.222;2023-02-15T07:47:57;6.10;99.90
30825;DHT22;17550;45.486;12.222;2023-02-15T07:50:23;6.30;99.90
30825;DHT22;17550;45.486;12.222;2023-02-15T07:52:48;6.30;99.90
30825;DHT22;17550;45.486;12.222;2023-02-15T07:55:14;6.50;99.90
30825;DHT22;17550;45.486;12.222;2023-02-15T07:57:47;6.60;99.90
30825;DHT22;17550;45.486;12.222;2023-02-15T08:00:16;6.80;99.90
30825;DHT22;17550;45.486;12.222;2023-02-15T08:02:46;6.90;99.90
30825;DHT22;17550;45.486;12.222;2023-02-15T08:05:12;7.00;99.90
30825;DHT22;17550;45.486;12.222;2023-02-15T08:07:38;7.00;99.90
30825;DHT22;17550;45.486;12.222;2023-02-15T08:10:04;7.00;99.90
30825;DHT22;17550;45.486;12.222;2023-02-15T08:12:30;7.10;99.90
30825;DHT22;17550;45.486;12.222;2023-02-15T08:14:56;7.20;99.90
30825;DHT22;17550;45.486;12.222;2023-02-15T08:17:22;7.30;99.90
30825;DHT22;17550;45.486;12.222;2023-02-15T08:19:48;7.40;99.90
30825;DHT22;17550;45.486;12.222;2023-02-15T08:22:14;7.60;99.90
30825;DHT22;17550;45.486;12.222;2023-02-15T08:24:40;7.60;99.90
30825;DHT22;17550;45.486;12.222;2023-02-15T08:27:07;7.80;99.90
30825;DHT22;17550;45.486;12.222;2023-02-15T08:29:35;7.70;99.90
30825;DHT22;17550;45.486;12.222;2023-02-15T08:32:04;7.80;99.90
30825;DHT22;17550;45.486;12.222;2023-02-15T08:34:34;7.90;99.90
30825;DHT22;17550;45.486;12.222;2023-02-15T08:37:00;7.90;99.90
30825;DHT22;17550;45.486;12.222;2023-02-15T08:39:26;7.90;99.90
30825;DHT22;17550;45.486;12.222;2023-02-15T08:41:51;8.00;99.90
30825;DHT22;17550;45.486;12.222;2023-02-15T08:44:18;8.20;99.90
30825;DHT22;17550;45.486;12.222;2023-02-15T08:46:46;8.40;99.90
30825;DHT22;17550;45.486;12.222;2023-02-15T08:49:15;8.60;99.90
30825;DHT22;17550;45.486;12.222;2023-02-15T08:51:41;8.70;99.90
30825;DHT22;17550;45.486;12.222;2023-02-15T08:54:13;8.80;99.90
30825;DHT22;17550;45.486;12.222;2023-02-15T08:56:40;9.00;99.90
30825;DHT22;17550;45.486;12.222;2023-02-15T08:59:11;9.10;99.90
30825;DHT22;17550;45.486;12.222;2023-02-15T09:01:37;9.20;99.90
30825;DHT22;17550;45.486;12.222;2023-02-15T09:04:07;9.30;99.90
30825;DHT22;17550;45.486;12.222;2023-02-15T09:06:37;9.40;99.90
30825;DHT22;17550;45.486;12.222;2023-02-15T09:09:03;9.60;99.90
30825;DHT22;17550;45.486;12.222;2023-02-15T09:11:34;9.70;99.90
30825;DHT22;17550;45.486;12.222;2023-02-15T09:14:06;9.80;99.90
30825;DHT22;17550;45.486;12.222;2023-02-15T09:16:35;9.90;99.90
30825;DHT22;17550;45.486;12.222;2023-02-15T09:19:01;10.10;99.90
30825;DHT22;17550;45.486;12.222;2023-02-15T09:21:28;10.20;99.90
30825;DHT22;17550;45.486;12.222;2023-02-15T09:23:59;10.30;99.90
30825;DHT22;17550;45.486;12.222;2023-02-15T09:26:26;10.50;99.90
30825;DHT22;17550;45.486;12.222;2023-02-15T09:28:55;10.50;99.90
30825;DHT22;17550;45.486;12.222;2023-02-15T09:31:23;10.60;99.90
30825;DHT22;17550;45.486;12.222;2023-02-15T09:33:49;10.70;99.90
30825;DHT22;17550;45.486;12.222;2023-02-15T09:36:50;10.70;99.90
30825;DHT22;17550;45.486;12.222;2023-02-15T09:39:12;10.90;99.90
30825;DHT22;17550;45.486;12.222;2023-02-15T09:47:12;11.10;98.20
30825;DHT22;17550;45.486;12.222;2023-02-15T10:01:18;11.50;96.50
30825;DHT22;17550;45.486;12.222;2023-02-15T10:12:42;11.90;95.90
30825;DHT22;17550;45.486;12.222;2023-02-15T10:18:22;12.00;95.30
30825;DHT22;17550;45.486;12.222;2023-02-15T10:20:57;12.10;95.30
30825;DHT22;17550;45.486;12.222;2023-02-15T10:23:54;12.20;95.30
30825;DHT22;17550;45.486;12.222;2023-02-15T10:26:44;12.30;95.10
30825;DHT22;17550;45.486;12.222;2023-02-15T10:29:32;12.40;94.30
30825;DHT22;17550;45.486;12.222;2023-02-15T10:35:20;12.50;94.10
30825;DHT22;17550;45.486;12.222;2023-02-15T10:38:13;12.60;94.10
30825;DHT22;17550;45.486;12.222;2023-02-15T11:00:23;13.20;93.00
30825;DHT22;17550;45.486;12.222;2023-02-15T11:08:07;13.40;92.50
30825;DHT22;17550;45.486;12.222;2023-02-15T11:10:47;13.60;92.40
30825;DHT22;17550;45.486;12.222;2023-02-15T11:13:18;13.80;91.90
30825;DHT22;17550;45.486;12.222;2023-02-15T11:18:54;13.80;91.60
30825;DHT22;17550;45.486;12.222;2023-02-15T11:21:32;13.90;91.40
30825;DHT22;17550;45.486;12.222;2023-02-15T11:23:59;14.00;91.30
30825;DHT22;17550;45.486;12.222;2023-02-15T11:26:43;14.10;91.40
30825;DHT22;17550;45.486;12.222;2023-02-15T11:29:18;14.20;91.20
30825;DHT22;17550;45.486;12.222;2023-02-15T11:31:54;14.30;91.40
30825;DHT22;17550;45.486;12.222;2023-02-15T11:34:34;14.40;93.40
30825;DHT22;17550;45.486;12.222;2023-02-15T11:37:08;14.60;92.40
30825;DHT22;17550;45.486;12.222;2023-02-15T11:39:35;14.70;91.00
30825;DHT22;17550;45.486;12.222;2023-02-15T11:42:06;14.80;90.70
30825;DHT22;17550;45.486;12.222;2023-02-15T11:44:42;14.80;90.50
30825;DHT22;17550;45.486;12.222;2023-02-15T11:47:09;14.80;90.60
30825;DHT22;17550;45.486;12.222;2023-02-15T11:49:35;14.80;90.80
30825;DHT22;17550;45.486;12.222;2023-02-15T11:52:06;15.00;90.10
30825;DHT22;17550;45.486;12.222;2023-02-15T11:54:35;15.00;90.00
30825;DHT22;17550;45.486;12.222;2023-02-15T11:57:42;15.00;89.70
30825;DHT22;17550;45.486;12.222;2023-02-15T12:02:57;15.10;88.00
30825;DHT22;17550;45.486;12.222;2023-02-15T12:05:24;15.00;87.00
30825;DHT22;17550;45.486;12.222;2023-02-15T12:07:54;15.10;86.80
30825;DHT22;17550;45.486;12.222;2023-02-15T12:10:37;15.20;86.80
30825;DHT22;17550;45.486;12.222;2023-02-15T12:15:36;15.10;86.90
30825;DHT22;17550;45.486;12.222;2023-02-15T12:18:02;15.20;87.10
30825;DHT22;17550;45.486;12.222;2023-02-15T12:20:31;15.30;86.50
30825;DHT22;17550;45.486;12.222;2023-02-15T12:23:03;15.40;86.40
30825;DHT22;17550;45.486;12.222;2023-02-15T12:25:42;15.50;86.00
30825;DHT22;17550;45.486;12.222;2023-02-15T12:28:34;15.60;85.40
30825;DHT22;17550;45.486;12.222;2023-02-15T12:31:03;15.50;85.80
30825;DHT22;17550;45.486;12.222;2023-02-15T12:36:18;15.60;86.10
30825;DHT22;17550;45.486;12.222;2023-02-15T12:41:28;15.70;85.50
30825;DHT22;17550;45.486;12.222;2023-02-15T12:44:24;15.80;85.50
30825;DHT22;17550;45.486;12.222;2023-02-15T12:49:35;15.90;85.20
30825;DHT22;17550;45.486;12.222;2023-02-15T12:52:06;16.00;85.10
30825;DHT22;17550;45.486;12.222;2023-02-15T12:54:48;16.00;84.90
30825;DHT22;17550;45.486;12.222;2023-02-15T12:57:33;16.10;83.90
30825;DHT22;17550;45.486;12.222;2023-02-15T13:00:11;16.10;83.60
30825;DHT22;17550;45.486;12.222;2023-02-15T13:02:55;16.20;83.10
30825;DHT22;17550;45.486;12.222;2023-02-15T13:05:38;16.20;83.60
30825;DHT22;17550;45.486;12.222;2023-02-15T13:11:10;16.20;82.70
30825;DHT22;17550;45.486;12.222;2023-02-15T13:13:54;16.30;82.90
30825;DHT22;17550;45.486;12.222;2023-02-15T13:18:58;16.30;82.20
30825;DHT22;17550;45.486;12.222;2023-02-15T13:21:32;16.30;82.40
30825;DHT22;17550;45.486;12.222;2023-02-15T13:24:05;16.30;82.80
30825;DHT22;17550;45.486;12.222;2023-02-15T13:26:32;16.20;83.20
30825;DHT22;17550;45.486;12.222;2023-02-15T13:29:12;16.20;83.80
30825;DHT22;17550;45.486;12.222;2023-02-15T13:31:41;16.30;83.70
30825;DHT22;17550;45.486;12.222;2023-02-15T13:34:12;16.30;83.40
30825;DHT22;17550;45.486;12.222;2023-02-15T13:36:54;16.30;83.00
30825;DHT22;17550;45.486;12.222;2023-02-15T13:39:39;16.20;83.20
30825;DHT22;17550;45.486;12.222;2023-02-15T13:45:05;16.20;82.80
30825;DHT22;17550;45.486;12.222;2023-02-15T13:47:51;16.20;82.60
30825;DHT22;17550;45.486;12.222;2023-02-15T13:53:15;16.30;82.10
30825;DHT22;17550;45.486;12.222;2023-02-15T13:55:50;16.20;80.80
30825;DHT22;17550;45.486;12.222;2023-02-15T14:04:41;16.30;80.40
30825;DHT22;17550;45.486;12.222;2023-02-15T14:07:23;16.30;79.70
30825;DHT22;17550;45.486;12.222;2023-02-15T14:12:51;16.20;79.90
30825;DHT22;17550;45.486;12.222;2023-02-15T14:24:16;16.20;79.80
30825;DHT22;17550;45.486;12.222;2023-02-15T14:32:20;16.20;80.70
30825;DHT22;17550;45.486;12.222;2023-02-15T14:34:57;16.20;80.40
30825;DHT22;17550;45.486;12.222;2023-02-15T14:43:20;16.20;81.00
30825;DHT22;17550;45.486;12.222;2023-02-15T14:45:53;16.10;80.90
30825;DHT22;17550;45.486;12.222;2023-02-15T14:48:30;16.00;80.40
30825;DHT22;17550;45.486;12.222;2023-02-15T14:50:56;16.00;80.60
30825;DHT22;17550;45.486;12.222;2023-02-15T14:53:32;16.00;80.80
30825;DHT22;17550;45.486;12.222;2023-02-15T14:58:37;16.10;81.60
30825;DHT22;17550;45.486;12.222;2023-02-15T15:01:26;16.00;81.10
30825;DHT22;17550;45.486;12.222;2023-02-15T15:03:55;15.80;81.20
30825;DHT22;17550;45.486;12.222;2023-02-15T15:06:34;15.80;81.30
30825;DHT22;17550;45.486;12.222;2023-02-15T15:09:14;15.70;81.80
30825;DHT22;17550;45.486;12.222;2023-02-15T15:11:49;15.80;82.20
30825;DHT22;17550;45.486;12.222;2023-02-15T15:16:57;15.70;82.50
30825;DHT22;17550;45.486;12.222;2023-02-15T15:22:21;15.50;83.00
30825;DHT22;17550;45.486;12.222;2023-02-15T15:24:47;15.50;83.30
30825;DHT22;17550;45.486;12.222;2023-02-15T15:27:45;15.40;83.50
30825;DHT22;17550;45.486;12.222;2023-02-15T15:49:33;15.00;87.40
30825;DHT22;17550;45.486;12.222;2023-02-15T15:52:02;14.90;87.90
30825;DHT22;17550;45.486;12.222;2023-02-15T15:54:29;14.80;88.70
30825;DHT22;17550;45.486;12.222;2023-02-15T15:57:01;14.70;89.20
30825;DHT22;17550;45.486;12.222;2023-02-15T15:59:28;14.60;89.90
30825;DHT22;17550;45.486;12.222;2023-02-15T16:01:56;14.50;90.40
30825;DHT22;17550;45.486;12.222;2023-02-15T16:04:31;14.40;90.80
30825;DHT22;17550;45.486;12.222;2023-02-15T16:07:13;14.30;91.10
30825;DHT22;17550;45.486;12.222;2023-02-15T16:09:39;14.20;91.30
30825;DHT22;17550;45.486;12.222;2023-02-15T16:12:15;14.10;91.40
30825;DHT22;17550;45.486;12.222;2023-02-15T16:14:43;14.00;91.80
30825;DHT22;17550;45.486;12.222;2023-02-15T16:17:23;13.90;91.80
30825;DHT22;17550;45.486;12.222;2023-02-15T16:19:50;13.80;92.00
30825;DHT22;17550;45.486;12.222;2023-02-15T16:22:23;13.70;92.20
30825;DHT22;17550;45.486;12.222;2023-02-15T16:25:20;13.60;92.50
30825;DHT22;17550;45.486;12.222;2023-02-15T16:27:50;13.50;92.70
30825;DHT22;17550;45.486;12.222;2023-02-15T16:30:32;13.40;92.90
30825;DHT22;17550;45.486;12.222;2023-02-15T16:33:13;13.30;93.00
30825;DHT22;17550;45.486;12.222;2023-02-15T16:35:52;13.20;93.20
30825;DHT22;17550;45.486;12.222;2023-02-15T16:38:21;13.10;93.40
30825;DHT22;17550;45.486;12.222;2023-02-15T16:40:55;13.00;93.70
30825;DHT22;17550;45.486;12.222;2023-02-15T16:43:28;12.90;93.90
30825;DHT22;17550;45.486;12.222;2023-02-15T16:46:05;12.70;94.00
30825;DHT22;17550;45.486;12.222;2023-02-15T16:48:32;12.60;94.30
30825;DHT22;17550;45.486;12.222;2023-02-15T16:51:00;12.50;94.90
30825;DHT22;17550;45.486;12.222;2023-02-15T16:53:27;12.40;94.80
30825;DHT22;17550;45.486;12.222;2023-02-15T16:55:56;12.30;94.90
30825;DHT22;17550;45.486;12.222;2023-02-15T16:58:44;12.20;95.00
30825;DHT22;17550;45.486;12.222;2023-02-15T17:01:14;12.10;95.10
30825;DHT22;17550;45.486;12.222;2023-02-15T17:03:42;12.00;95.30
30825;DHT22;17550;45.486;12.222;2023-02-15T17:06:26;11.90;95.60
30825;DHT22;17550;45.486;12.222;2023-02-15T17:08:52;11.90;95.90
30825;DHT22;17550;45.486;12.222;2023-02-15T17:11:23;11.80;96.00
30825;DHT22;17550;45.486;12.222;2023-02-15T17:17:12;11.70;96.40
30825;DHT22;17550;45.486;12.222;2023-02-15T17:19:50;11.60;96.60
30825;DHT22;17550;45.486;12.222;2023-02-15T17:22:22;11.60;96.90
30825;DHT22;17550;45.486;12.222;2023-02-15T17:24:56;11.60;97.20
30825;DHT22;17550;45.486;12.222;2023-02-15T17:27:25;11.50;97.30
30825;DHT22;17550;45.486;12.222;2023-02-15T17:29:56;11.40;97.40
30825;DHT22;17550;45.486;12.222;2023-02-15T17:32:25;11.40;97.60
30825;DHT22;17550;45.486;12.222;2023-02-15T17:37:32;11.20;98.00
30825;DHT22;17550;45.486;12.222;2023-02-15T17:40:28;11.10;98.10
30825;DHT22;17550;45.486;12.222;2023-02-15T17:42:54;11.10;98.30
30825;DHT22;17550;45.486;12.222;2023-02-15T17:45:21;11.00;98.50
30825;DHT22;17550;45.486;12.222;2023-02-15T17:47:48;10.90;98.70
30825;DHT22;17550;45.486;12.222;2023-02-15T17:50:23;10.90;98.90
30825;DHT22;17550;45.486;12.222;2023-02-15T17:52:50;10.90;99.10
30825;DHT22;17550;45.486;12.222;2023-02-15T17:55:19;10.80;99.10
30825;DHT22;17550;45.486;12.222;2023-02-15T17:58:06;10.80;99.20
30825;DHT22;17550;45.486;12.222;2023-02-15T18:00:36;10.70;99.30
30825;DHT22;17550;45.486;12.222;2023-02-15T18:03:23;10.60;99.40
30825;DHT22;17550;45.486;12.222;2023-02-15T18:06:09;10.60;99.60
30825;DHT22;17550;45.486;12.222;2023-02-15T18:08:53;10.50;99.70
30825;DHT22;17550;45.486;12.222;2023-02-15T18:11:37;10.50;99.80
30825;DHT22;17550;45.486;12.222;2023-02-15T18:14:09;10.40;99.90
30825;DHT22;17550;45.486;12.222;2023-02-15T18:16:37;10.40;99.90
30825;DHT22;17550;45.486;12.222;2023-02-15T18:19:08;10.40;99.90
30825;DHT22;17550;45.486;12.222;2023-02-15T18:21:36;10.30;99.90
30825;DHT22;17550;45.486;12.222;2023-02-15T18:24:01;10.30;99.90
30825;DHT22;17550;45.486;12.222;2023-02-15T18:26:27;10.30;99.90
30825;DHT22;17550;45.486;12.222;2023-02-15T18:28:54;10.30;99.90
30825;DHT22;17550;45.486;12.222;2023-02-15T18:31:21;10.20;99.90
30825;DHT22;17550;45.486;12.222;2023-02-15T18:33:51;10.10;99.90
30825;DHT22;17550;45.486;12.222;2023-02-15T18:36:30;10.10;99.90
30825;DHT22;17550;45.486;12.222;2023-02-15T18:38:58;10.00;99.90
30825;DHT22;17550;45.486;12.222;2023-02-15T18:41:24;10.00;99.90
30825;DHT22;17550;45.486;12.222;2023-02-15T18:43:50;9.90;99.90
30825;DHT22;17550;45.486;12.222;2023-02-15T18:46:18;9.80;99.90
30825;DHT22;17550;45.486;12.222;2023-02-15T18:48:44;9.80;99.90
30825;DHT22;17550;45.486;12.222;2023-02-15T18:51:19;9.70;99.90